sensor_id;sensor_type;location;lat;lon;timestamp;P1;durP1;ratioP1;P2;durP2;ratioP2
16892;SDS011;8563;52.242;9.098;2023-04-29T00:00:51;22.17;;;19.77;;
16892;SDS011;8563;52.242;9.098;2023-04-29T00:03:25;23.27;;;20.77;;
16892;SDS011;8563;52.242;9.098;2023-04-29T00:06:01;25.63;;;21.87;;
16892;SDS011;8563;52.242;9.098;2023-04-29T00:08:33;21.97;;;19.67;;
16892;SDS011;8563;52.242;9.098;2023-04-29T00:11:06;23.40;;;20.90;;
16892;SDS011;8563;52.242;9.098;2023-04-29T00:13:40;22.13;;;19.70;;
16892;SDS011;8563;52.242;9.098;2023-04-29T00:16:13;24.57;;;21.43;;
16892;SDS011;8563;52.242;9.098;2023-04-29T00:18:47;25.87;;;22.20;;
16892;SDS011;8563;52.242;9.098;2023-04-29T00:21:19;28.20;;;23.80;;
16892;SDS011;8563;52.242;9.098;2023-04-29T00:23:52;26.53;;;22.63;;
16892;SDS011;8563;52.242;9.098;2023-04-29T00:26:24;27.90;;;23.23;;
16892;SDS011;8563;52.242;9.098;2023-04-29T00:28:58;27.57;;;23.40;;
16892;SDS011;8563;52.242;9.098;2023-04-29T00:31:30;29.20;;;24.77;;
16892;SDS011;8563;52.242;9.098;2023-04-29T00:34:04;29.70;;;23.73;;
16892;SDS011;8563;52.242;9.098;2023-04-29T00:36:37;29.93;;;24.03;;
16892;SDS011;8563;52.242;9.098;2023-04-29T00:39:10;27.17;;;22.43;;
16892;SDS011;8563;52.242;9.098;2023-04-29T00:41:42;30.13;;;24.17;;
16892;SDS011;8563;52.242;9.098;2023-04-29T00:44:15;28.00;;;23.77;;
16892;SDS011;8563;52.242;9.098;2023-04-29T00:46:48;26.07;;;22.50;;
16892;SDS011;8563;52.242;9.098;2023-04-29T00:49:22;24.97;;;21.90;;
16892;SDS011;8563;52.242;9.098;2023-04-29T00:51:54;28.00;;;23.60;;
16892;SDS011;8563;52.242;9.098;2023-04-29T00:54:27;31.10;;;24.63;;
16892;SDS011;8563;52.242;9.098;2023-04-29T00:57:00;25.23;;;21.97;;
16892;SDS011;8563;52.242;9.098;2023-04-29T00:59:33;25.80;;;23.03;;
16892;SDS011;8563;52.242;9.098;2023-04-29T01:02:05;26.37;;;20.57;;
16892;SDS011;8563;52.242;9.098;2023-04-29T01:04:39;23.07;;;19.93;;
16892;SDS011;8563;52.242;9.098;2023-04-29T01:07:13;24.17;;;21.27;;
16892;SDS011;8563;52.242;9.098;2023-04-29T01:09:49;25.13;;;20.40;;
16892;SDS011;8563;52.242;9.098;2023-04-29T01:12:26;22.17;;;19.60;;
16892;SDS011;8563;52.242;9.098;2023-04-29T01:15:03;23.23;;;18.90;;
16892;SDS011;8563;52.242;9.098;2023-04-29T01:17:38;22.37;;;19.97;;
16892;SDS011;8563;52.242;9.098;2023-04-29T01:20:14;23.40;;;20.43;;
16892;SDS011;8563;52.242;9.098;2023-04-29T01:22:47;20.63;;;17.37;;
16892;SDS011;8563;52.242;9.098;2023-04-29T01:25:21;22.60;;;19.57;;
16892;SDS011;8563;52.242;9.098;2023-04-29T01:28:08;22.17;;;19.23;;
16892;SDS011;8563;52.242;9.098;2023-04-29T01:30:47;22.50;;;20.00;;
16892;SDS011;8563;52.242;9.098;2023-04-29T01:33:22;22.73;;;20.23;;
16892;SDS011;8563;52.242;9.098;2023-04-29T01:36:02;24.23;;;20.80;;
16892;SDS011;8563;52.242;9.098;2023-04-29T01:38:38;23.63;;;19.40;;
16892;SDS011;8563;52.242;9.098;2023-04-29T01:41:15;22.97;;;19.67;;
16892;SDS011;8563;52.242;9.098;2023-04-29T01:43:53;24.13;;;19.93;;
16892;SDS011;8563;52.242;9.098;2023-04-29T01:46:28;27.37;;;20.47;;
16892;SDS011;8563;52.242;9.098;2023-04-29T01:49:01;24.53;;;20.57;;
16892;SDS011;8563;52.242;9.098;2023-04-29T01:51:34;25.77;;;20.83;;
16892;SDS011;8563;52.242;9.098;2023-04-29T01:54:07;24.37;;;20.23;;
16892;SDS011;8563;52.242;9.098;2023-04-29T01:56:41;21.93;;;19.03;;
16892;SDS011;8563;52.242;9.098;2023-04-29T01:59:29;25.27;;;20.83;;
16892;SDS011;8563;52.242;9.098;2023-04-29T02:02:14;28.07;;;21.17;;
16892;SDS011;8563;52.242;9.098;2023-04-29T02:04:56;25.87;;;20.20;;
16892;SDS011;8563;52.242;9.098;2023-04-29T02:07:28;24.07;;;19.37;;
16892;SDS011;8563;52.242;9.098;2023-04-29T02:10:01;20.80;;;17.37;;
16892;SDS011;8563;52.242;9.098;2023-04-29T02:12:38;22.83;;;18.27;;
16892;SDS011;8563;52.242;9.098;2023-04-29T02:15:11;22.60;;;18.73;;
16892;SDS011;8563;52.242;9.098;2023-04-29T02:17:44;23.93;;;19.47;;
16892;SDS011;8563;52.242;9.098;2023-04-29T02:20:16;20.37;;;17.67;;
16892;SDS011;8563;52.242;9.098;2023-04-29T02:22:49;22.63;;;18.53;;
16892;SDS011;8563;52.242;9.098;2023-04-29T02:25:21;22.60;;;18.50;;
16892;SDS011;8563;52.242;9.098;2023-04-29T02:27:55;23.30;;;19.60;;
16892;SDS011;8563;52.242;9.098;2023-04-29T02:30:28;20.60;;;18.03;;
16892;SDS011;8563;52.242;9.098;2023-04-29T02:33:00;20.13;;;17.03;;
16892;SDS011;8563;52.242;9.098;2023-04-29T02:35:33;20.10;;;16.40;;
16892;SDS011;8563;52.242;9.098;2023-04-29T02:38:05;18.07;;;15.50;;
16892;SDS011;8563;52.242;9.098;2023-04-29T02:40:40;18.03;;;16.07;;
16892;SDS011;8563;52.242;9.098;2023-04-29T02:43:14;18.00;;;16.10;;
16892;SDS011;8563;52.242;9.098;2023-04-29T02:45:48;20.93;;;16.87;;
16892;SDS011;8563;52.242;9.098;2023-04-29T02:48:21;16.17;;;14.40;;
16892;SDS011;8563;52.242;9.098;2023-04-29T02:50:54;15.90;;;14.20;;
16892;SDS011;8563;52.242;9.098;2023-04-29T02:53:26;20.07;;;17.93;;
16892;SDS011;8563;52.242;9.098;2023-04-29T02:55:59;20.07;;;17.90;;
16892;SDS011;8563;52.242;9.098;2023-04-29T02:58:33;20.63;;;18.63;;
16892;SDS011;8563;52.242;9.098;2023-04-29T03:01:05;18.93;;;17.07;;
16892;SDS011;8563;52.242;9.098;2023-04-29T03:03:38;21.10;;;18.97;;
16892;SDS011;8563;52.242;9.098;2023-04-29T03:06:10;21.47;;;19.17;;
16892;SDS011;8563;52.242;9.098;2023-04-29T03:08:43;20.37;;;18.37;;
16892;SDS011;8563;52.242;9.098;2023-04-29T03:11:16;24.07;;;21.17;;
16892;SDS011;8563;52.242;9.098;2023-04-29T03:13:50;22.03;;;19.70;;
16892;SDS011;8563;52.242;9.098;2023-04-29T03:16:24;20.23;;;18.23;;
16892;SDS011;8563;52.242;9.098;2023-04-29T03:18:58;22.90;;;20.07;;
16892;SDS011;8563;52.242;9.098;2023-04-29T03:21:30;19.37;;;17.57;;
16892;SDS011;8563;52.242;9.098;2023-04-29T03:24:03;18.20;;;16.37;;
16892;SDS011;8563;52.242;9.098;2023-04-29T03:26:37;19.97;;;17.90;;
16892;SDS011;8563;52.242;9.098;2023-04-29T03:29:13;17.53;;;15.83;;
16892;SDS011;8563;52.242;9.098;2023-04-29T03:31:45;21.80;;;19.60;;
16892;SDS011;8563;52.242;9.098;2023-04-29T03:34:18;21.10;;;19.10;;
16892;SDS011;8563;52.242;9.098;2023-04-29T03:36:59;21.43;;;19.30;;
16892;SDS011;8563;52.242;9.098;2023-04-29T03:39:32;25.30;;;22.63;;
16892;SDS011;8563;52.242;9.098;2023-04-29T03:42:04;23.97;;;21.63;;
16892;SDS011;8563;52.242;9.098;2023-04-29T03:44:38;24.40;;;21.90;;
16892;SDS011;8563;52.242;9.098;2023-04-29T03:47:11;30.20;;;25.37;;
16892;SDS011;8563;52.242;9.098;2023-04-29T03:49:43;25.63;;;23.03;;
16892;SDS011;8563;52.242;9.098;2023-04-29T03:52:16;25.63;;;23.00;;
16892;SDS011;8563;52.242;9.098;2023-04-29T03:54:52;24.13;;;21.73;;
16892;SDS011;8563;52.242;9.098;2023-04-29T03:57:25;24.43;;;21.97;;
16892;SDS011;8563;52.242;9.098;2023-04-29T04:00:00;25.03;;;22.43;;
16892;SDS011;8563;52.242;9.098;2023-04-29T04:02:43;27.93;;;24.90;;
16892;SDS011;8563;52.242;9.098;2023-04-29T04:05:16;35.23;;;29.73;;
16892;SDS011;8563;52.242;9.098;2023-04-29T04:07:54;42.53;;;31.70;;
16892;SDS011;8563;52.242;9.098;2023-04-29T04:10:45;33.77;;;27.97;;
16892;SDS011;8563;52.242;9.098;2023-04-29T04:13:38;42.20;;;31.87;;
16892;SDS011;8563;52.242;9.098;2023-04-29T04:16:12;36.13;;;29.63;;
16892;SDS011;8563;52.242;9.098;2023-04-29T04:18:45;37.33;;;31.17;;
16892;SDS011;8563;52.242;9.098;2023-04-29T04:21:18;36.33;;;29.57;;
16892;SDS011;8563;52.242;9.098;2023-04-29T04:24:05;44.17;;;32.93;;
16892;SDS011;8563;52.242;9.098;2023-04-29T04:26:38;36.53;;;30.53;;
16892;SDS011;8563;52.242;9.098;2023-04-29T04:29:31;36.07;;;29.20;;
16892;SDS011;8563;52.242;9.098;2023-04-29T04:32:09;38.23;;;31.80;;
16892;SDS011;8563;52.242;9.098;2023-04-29T04:34:43;38.80;;;32.07;;
16892;SDS011;8563;52.242;9.098;2023-04-29T04:37:15;40.97;;;32.53;;
16892;SDS011;8563;52.242;9.098;2023-04-29T04:39:53;43.17;;;33.90;;
16892;SDS011;8563;52.242;9.098;2023-04-29T04:42:25;43.20;;;34.50;;
16892;SDS011;8563;52.242;9.098;2023-04-29T04:45:01;45.90;;;34.83;;
16892;SDS011;8563;52.242;9.098;2023-04-29T04:47:48;42.83;;;33.90;;
16892;SDS011;8563;52.242;9.098;2023-04-29T04:50:26;40.50;;;32.17;;
16892;SDS011;8563;52.242;9.098;2023-04-29T04:52:59;36.03;;;30.43;;
16892;SDS011;8563;52.242;9.098;2023-04-29T04:55:46;40.90;;;32.07;;
16892;SDS011;8563;52.242;9.098;2023-04-29T04:58:19;36.47;;;30.60;;
16892;SDS011;8563;52.242;9.098;2023-04-29T05:00:52;41.53;;;33.57;;
16892;SDS011;8563;52.242;9.098;2023-04-29T05:03:25;41.63;;;34.17;;
16892;SDS011;8563;52.242;9.098;2023-04-29T05:05:58;46.30;;;35.53;;
16892;SDS011;8563;52.242;9.098;2023-04-29T05:08:33;40.37;;;33.30;;
16892;SDS011;8563;52.242;9.098;2023-04-29T05:11:14;39.33;;;32.67;;
16892;SDS011;8563;52.242;9.098;2023-04-29T05:13:46;43.37;;;35.33;;
16892;SDS011;8563;52.242;9.098;2023-04-29T05:16:19;38.03;;;31.97;;
16892;SDS011;8563;52.242;9.098;2023-04-29T05:18:53;46.10;;;35.43;;
16892;SDS011;8563;52.242;9.098;2023-04-29T05:21:30;40.20;;;33.07;;
16892;SDS011;8563;52.242;9.098;2023-04-29T05:24:03;44.97;;;36.60;;
16892;SDS011;8563;52.242;9.098;2023-04-29T05:26:36;43.33;;;36.43;;
16892;SDS011;8563;52.242;9.098;2023-04-29T05:29:10;46.07;;;37.40;;
16892;SDS011;8563;52.242;9.098;2023-04-29T05:31:54;38.57;;;32.80;;
16892;SDS011;8563;52.242;9.098;2023-04-29T05:34:29;48.80;;;36.63;;
16892;SDS011;8563;52.242;9.098;2023-04-29T05:37:02;41.67;;;33.93;;
16892;SDS011;8563;52.242;9.098;2023-04-29T05:39:38;39.90;;;33.63;;
16892;SDS011;8563;52.242;9.098;2023-04-29T05:42:16;52.83;;;40.17;;
16892;SDS011;8563;52.242;9.098;2023-04-29T05:44:52;45.83;;;36.30;;
16892;SDS011;8563;52.242;9.098;2023-04-29T05:47:25;47.93;;;40.30;;
16892;SDS011;8563;52.242;9.098;2023-04-29T05:49:59;41.80;;;35.13;;
16892;SDS011;8563;52.242;9.098;2023-04-29T05:52:32;41.87;;;35.57;;
16892;SDS011;8563;52.242;9.098;2023-04-29T05:55:05;42.90;;;35.23;;
16892;SDS011;8563;52.242;9.098;2023-04-29T05:57:37;44.00;;;36.63;;
16892;SDS011;8563;52.242;9.098;2023-04-29T06:00:10;42.70;;;37.50;;
16892;SDS011;8563;52.242;9.098;2023-04-29T06:02:46;40.33;;;34.30;;
16892;SDS011;8563;52.242;9.098;2023-04-29T06:05:21;44.10;;;38.53;;
16892;SDS011;8563;52.242;9.098;2023-04-29T06:08:20;44.70;;;38.27;;
16892;SDS011;8563;52.242;9.098;2023-04-29T06:10:56;41.13;;;36.63;;
16892;SDS011;8563;52.242;9.098;2023-04-29T06:13:29;39.73;;;34.53;;
16892;SDS011;8563;52.242;9.098;2023-04-29T06:16:01;41.80;;;35.80;;
16892;SDS011;8563;52.242;9.098;2023-04-29T06:18:36;41.63;;;36.93;;
16892;SDS011;8563;52.242;9.098;2023-04-29T06:21:10;40.27;;;34.17;;
16892;SDS011;8563;52.242;9.098;2023-04-29T06:23:43;44.60;;;38.37;;
16892;SDS011;8563;52.242;9.098;2023-04-29T06:26:20;45.97;;;39.43;;
16892;SDS011;8563;52.242;9.098;2023-04-29T06:28:52;40.43;;;36.13;;
16892;SDS011;8563;52.242;9.098;2023-04-29T06:31:25;39.07;;;34.53;;
16892;SDS011;8563;52.242;9.098;2023-04-29T06:34:03;40.37;;;34.67;;
16892;SDS011;8563;52.242;9.098;2023-04-29T06:36:39;42.23;;;37.63;;
16892;SDS011;8563;52.242;9.098;2023-04-29T06:39:30;41.70;;;36.57;;
16892;SDS011;8563;52.242;9.098;2023-04-29T06:42:38;46.30;;;39.63;;
16892;SDS011;8563;52.242;9.098;2023-04-29T06:45:30;41.63;;;36.07;;
16892;SDS011;8563;52.242;9.098;2023-04-29T06:48:09;41.00;;;36.70;;
16892;SDS011;8563;52.242;9.098;2023-04-29T06:50:48;43.00;;;38.50;;
16892;SDS011;8563;52.242;9.098;2023-04-29T06:53:23;42.20;;;37.67;;
16892;SDS011;8563;52.242;9.098;2023-04-29T06:55:55;43.47;;;38.97;;
16892;SDS011;8563;52.242;9.098;2023-04-29T06:58:28;41.07;;;36.67;;
16892;SDS011;8563;52.242;9.098;2023-04-29T07:01:01;40.07;;;35.97;;
16892;SDS011;8563;52.242;9.098;2023-04-29T07:03:35;42.97;;;38.57;;
16892;SDS011;8563;52.242;9.098;2023-04-29T07:06:07;39.17;;;35.00;;
16892;SDS011;8563;52.242;9.098;2023-04-29T07:08:41;37.43;;;33.57;;
16892;SDS011;8563;52.242;9.098;2023-04-29T07:11:14;38.10;;;34.13;;
16892;SDS011;8563;52.242;9.098;2023-04-29T07:13:46;35.43;;;31.83;;
16892;SDS011;8563;52.242;9.098;2023-04-29T07:16:19;33.40;;;29.97;;
16892;SDS011;8563;52.242;9.098;2023-04-29T07:18:55;33.50;;;30.20;;
16892;SDS011;8563;52.242;9.098;2023-04-29T07:21:27;31.47;;;28.27;;
16892;SDS011;8563;52.242;9.098;2023-04-29T07:24:02;29.67;;;26.77;;
16892;SDS011;8563;52.242;9.098;2023-04-29T07:26:35;31.13;;;28.07;;
16892;SDS011;8563;52.242;9.098;2023-04-29T07:29:08;34.43;;;31.03;;
16892;SDS011;8563;52.242;9.098;2023-04-29T07:31:40;32.33;;;29.17;;
16892;SDS011;8563;52.242;9.098;2023-04-29T07:34:13;33.87;;;30.57;;
16892;SDS011;8563;52.242;9.098;2023-04-29T07:36:46;35.87;;;32.07;;
16892;SDS011;8563;52.242;9.098;2023-04-29T07:39:21;33.70;;;30.40;;
16892;SDS011;8563;52.242;9.098;2023-04-29T07:41:58;31.67;;;28.37;;
16892;SDS011;8563;52.242;9.098;2023-04-29T07:44:32;31.27;;;28.33;;
16892;SDS011;8563;52.242;9.098;2023-04-29T07:47:06;33.47;;;30.27;;
16892;SDS011;8563;52.242;9.098;2023-04-29T07:49:38;32.67;;;29.40;;
16892;SDS011;8563;52.242;9.098;2023-04-29T07:52:11;29.03;;;26.33;;
16892;SDS011;8563;52.242;9.098;2023-04-29T07:54:45;28.70;;;25.87;;
16892;SDS011;8563;52.242;9.098;2023-04-29T07:57:18;29.17;;;26.27;;
16892;SDS011;8563;52.242;9.098;2023-04-29T07:59:51;28.53;;;25.30;;
16892;SDS011;8563;52.242;9.098;2023-04-29T08:02:24;30.03;;;27.03;;
16892;SDS011;8563;52.242;9.098;2023-04-29T08:04:57;25.23;;;22.73;;
16892;SDS011;8563;52.242;9.098;2023-04-29T08:07:30;25.93;;;23.53;;
16892;SDS011;8563;52.242;9.098;2023-04-29T08:10:04;25.33;;;23.00;;
16892;SDS011;8563;52.242;9.098;2023-04-29T08:12:40;23.90;;;21.60;;
16892;SDS011;8563;52.242;9.098;2023-04-29T08:15:13;26.17;;;23.60;;
16892;SDS011;8563;52.242;9.098;2023-04-29T08:17:45;27.43;;;24.53;;
16892;SDS011;8563;52.242;9.098;2023-04-29T08:20:18;23.60;;;21.40;;
16892;SDS011;8563;52.242;9.098;2023-04-29T08:22:51;22.13;;;20.03;;
16892;SDS011;8563;52.242;9.098;2023-04-29T08:25:25;26.73;;;24.10;;
16892;SDS011;8563;52.242;9.098;2023-04-29T08:27:58;26.00;;;23.53;;
16892;SDS011;8563;52.242;9.098;2023-04-29T08:30:30;23.37;;;21.23;;
16892;SDS011;8563;52.242;9.098;2023-04-29T08:33:03;23.23;;;21.03;;
16892;SDS011;8563;52.242;9.098;2023-04-29T08:35:36;20.40;;;18.50;;
16892;SDS011;8563;52.242;9.098;2023-04-29T08:38:08;20.10;;;18.30;;
16892;SDS011;8563;52.242;9.098;2023-04-29T08:40:42;21.00;;;19.10;;
16892;SDS011;8563;52.242;9.098;2023-04-29T08:43:15;21.03;;;19.10;;
16892;SDS011;8563;52.242;9.098;2023-04-29T08:45:49;23.00;;;20.73;;
16892;SDS011;8563;52.242;9.098;2023-04-29T08:48:21;19.67;;;17.83;;
16892;SDS011;8563;52.242;9.098;2023-04-29T08:50:55;19.17;;;17.37;;
16892;SDS011;8563;52.242;9.098;2023-04-29T08:53:29;19.43;;;17.43;;
16892;SDS011;8563;52.242;9.098;2023-04-29T08:56:07;19.33;;;17.73;;
16892;SDS011;8563;52.242;9.098;2023-04-29T08:58:40;17.50;;;15.87;;
16892;SDS011;8563;52.242;9.098;2023-04-29T09:01:13;18.30;;;16.57;;
16892;SDS011;8563;52.242;9.098;2023-04-29T09:03:48;16.83;;;15.23;;
16892;SDS011;8563;52.242;9.098;2023-04-29T09:06:21;16.87;;;15.27;;
16892;SDS011;8563;52.242;9.098;2023-04-29T09:08:54;16.73;;;15.03;;
16892;SDS011;8563;52.242;9.098;2023-04-29T09:11:28;15.07;;;13.73;;
16892;SDS011;8563;52.242;9.098;2023-04-29T09:14:01;15.83;;;14.33;;
16892;SDS011;8563;52.242;9.098;2023-04-29T09:16:34;15.73;;;14.23;;
16892;SDS011;8563;52.242;9.098;2023-04-29T09:19:08;14.77;;;13.37;;
16892;SDS011;8563;52.242;9.098;2023-04-29T09:21:40;14.70;;;13.30;;
16892;SDS011;8563;52.242;9.098;2023-04-29T09:24:13;15.27;;;13.90;;
16892;SDS011;8563;52.242;9.098;2023-04-29T09:26:57;14.47;;;13.17;;
16892;SDS011;8563;52.242;9.098;2023-04-29T09:29:30;14.57;;;13.27;;
16892;SDS011;8563;52.242;9.098;2023-04-29T09:32:17;15.57;;;14.18;;
16892;SDS011;8563;52.242;9.098;2023-04-29T09:34:50;15.43;;;13.63;;
16892;SDS011;8563;52.242;9.098;2023-04-29T09:37:23;14.40;;;12.90;;
16892;SDS011;8563;52.242;9.098;2023-04-29T09:39:56;12.53;;;11.40;;
16892;SDS011;8563;52.242;9.098;2023-04-29T09:42:30;13.03;;;11.87;;
16892;SDS011;8563;52.242;9.098;2023-04-29T09:48:01;13.03;;;11.73;;
16892;SDS011;8563;52.242;9.098;2023-04-29T09:50:34;13.73;;;12.53;;
16892;SDS011;8563;52.242;9.098;2023-04-29T09:53:07;12.93;;;11.47;;
16892;SDS011;8563;52.242;9.098;2023-04-29T09:58:30;13.77;;;12.47;;
16892;SDS011;8563;52.242;9.098;2023-04-29T10:01:06;13.90;;;12.60;;
16892;SDS011;8563;52.242;9.098;2023-04-29T10:03:38;14.60;;;12.17;;
16892;SDS011;8563;52.242;9.098;2023-04-29T10:06:13;13.73;;;11.60;;
16892;SDS011;8563;52.242;9.098;2023-04-29T10:08:46;12.93;;;11.67;;
16892;SDS011;8563;52.242;9.098;2023-04-29T10:11:19;13.47;;;12.17;;
16892;SDS011;8563;52.242;9.098;2023-04-29T10:13:53;13.37;;;12.10;;
16892;SDS011;8563;52.242;9.098;2023-04-29T10:16:27;13.80;;;12.40;;
16892;SDS011;8563;52.242;9.098;2023-04-29T10:19:02;13.43;;;12.03;;
16892;SDS011;8563;52.242;9.098;2023-04-29T10:21:36;15.10;;;13.60;;
16892;SDS011;8563;52.242;9.098;2023-04-29T10:24:09;14.77;;;13.27;;
16892;SDS011;8563;52.242;9.098;2023-04-29T10:26:42;11.67;;;10.63;;
16892;SDS011;8563;52.242;9.098;2023-04-29T10:29:17;15.20;;;12.40;;
16892;SDS011;8563;52.242;9.098;2023-04-29T10:31:50;13.87;;;12.20;;
16892;SDS011;8563;52.242;9.098;2023-04-29T10:34:22;13.10;;;11.90;;
16892;SDS011;8563;52.242;9.098;2023-04-29T10:36:56;14.77;;;13.10;;
16892;SDS011;8563;52.242;9.098;2023-04-29T10:39:29;12.27;;;11.17;;
16892;SDS011;8563;52.242;9.098;2023-04-29T10:42:03;12.60;;;11.40;;
16892;SDS011;8563;52.242;9.098;2023-04-29T10:44:43;12.30;;;11.07;;
16892;SDS011;8563;52.242;9.098;2023-04-29T10:47:35;9.67;;;8.77;;
16892;SDS011;8563;52.242;9.098;2023-04-29T10:50:08;10.53;;;8.77;;
16892;SDS011;8563;52.242;9.098;2023-04-29T10:52:50;8.90;;;8.00;;
16892;SDS011;8563;52.242;9.098;2023-04-29T10:55:22;9.13;;;7.77;;
16892;SDS011;8563;52.242;9.098;2023-04-29T10:57:55;8.87;;;7.97;;
16892;SDS011;8563;52.242;9.098;2023-04-29T11:00:30;10.07;;;9.00;;
16892;SDS011;8563;52.242;9.098;2023-04-29T11:03:04;8.10;;;7.40;;
16892;SDS011;8563;52.242;9.098;2023-04-29T11:05:38;8.23;;;7.53;;
16892;SDS011;8563;52.242;9.098;2023-04-29T11:08:10;8.67;;;7.30;;
16892;SDS011;8563;52.242;9.098;2023-04-29T11:10:45;9.67;;;7.40;;
16892;SDS011;8563;52.242;9.098;2023-04-29T11:13:20;9.80;;;7.67;;
16892;SDS011;8563;52.242;9.098;2023-04-29T11:15:55;10.13;;;7.40;;
16892;SDS011;8563;52.242;9.098;2023-04-29T11:18:35;8.83;;;7.90;;
16892;SDS011;8563;52.242;9.098;2023-04-29T11:21:11;9.03;;;7.70;;
16892;SDS011;8563;52.242;9.098;2023-04-29T11:23:44;7.90;;;7.10;;
16892;SDS011;8563;52.242;9.098;2023-04-29T11:26:18;9.30;;;7.90;;
16892;SDS011;8563;52.242;9.098;2023-04-29T11:28:51;8.40;;;7.60;;
16892;SDS011;8563;52.242;9.098;2023-04-29T11:31:30;8.10;;;6.70;;
16892;SDS011;8563;52.242;9.098;2023-04-29T11:34:03;7.83;;;7.03;;
16892;SDS011;8563;52.242;9.098;2023-04-29T11:36:36;7.80;;;7.00;;
16892;SDS011;8563;52.242;9.098;2023-04-29T11:39:09;9.83;;;7.73;;
16892;SDS011;8563;52.242;9.098;2023-04-29T11:41:41;7.93;;;7.13;;
16892;SDS011;8563;52.242;9.098;2023-04-29T11:44:14;8.10;;;7.23;;
16892;SDS011;8563;52.242;9.098;2023-04-29T11:46:54;10.70;;;8.03;;
16892;SDS011;8563;52.242;9.098;2023-04-29T11:49:32;7.70;;;6.90;;
16892;SDS011;8563;52.242;9.098;2023-04-29T11:52:06;7.37;;;6.60;;
16892;SDS011;8563;52.242;9.098;2023-04-29T11:54:39;10.27;;;7.37;;
16892;SDS011;8563;52.242;9.098;2023-04-29T11:57:12;8.07;;;7.30;;
16892;SDS011;8563;52.242;9.098;2023-04-29T11:59:45;8.87;;;7.63;;
16892;SDS011;8563;52.242;9.098;2023-04-29T12:02:21;7.27;;;6.57;;
16892;SDS011;8563;52.242;9.098;2023-04-29T12:04:54;8.53;;;7.40;;
16892;SDS011;8563;52.242;9.098;2023-04-29T12:07:27;8.53;;;7.67;;
16892;SDS011;8563;52.242;9.098;2023-04-29T12:09:59;9.60;;;7.63;;
16892;SDS011;8563;52.242;9.098;2023-04-29T12:12:32;8.10;;;7.00;;
16892;SDS011;8563;52.242;9.098;2023-04-29T12:15:06;6.90;;;6.23;;
16892;SDS011;8563;52.242;9.098;2023-04-29T12:17:41;11.50;;;7.70;;
16892;SDS011;8563;52.242;9.098;2023-04-29T12:20:13;8.17;;;7.33;;
16892;SDS011;8563;52.242;9.098;2023-04-29T12:22:46;9.73;;;7.80;;
16892;SDS011;8563;52.242;9.098;2023-04-29T12:25:23;8.70;;;7.67;;
16892;SDS011;8563;52.242;9.098;2023-04-29T12:27:58;8.13;;;7.33;;
16892;SDS011;8563;52.242;9.098;2023-04-29T12:30:33;8.13;;;7.07;;
16892;SDS011;8563;52.242;9.098;2023-04-29T12:33:08;7.90;;;7.03;;
16892;SDS011;8563;52.242;9.098;2023-04-29T12:35:41;8.10;;;6.80;;
16892;SDS011;8563;52.242;9.098;2023-04-29T12:38:14;9.15;;;7.05;;
16892;SDS011;8563;52.242;9.098;2023-04-29T12:40:48;7.65;;;6.95;;
16892;SDS011;8563;52.242;9.098;2023-04-29T12:43:24;8.23;;;6.10;;
16892;SDS011;8563;52.242;9.098;2023-04-29T12:45:59;7.10;;;6.23;;
16892;SDS011;8563;52.242;9.098;2023-04-29T12:48:34;8.38;;;6.20;;
16892;SDS011;8563;52.242;9.098;2023-04-29T12:51:08;7.05;;;6.35;;
16892;SDS011;8563;52.242;9.098;2023-04-29T12:53:40;7.53;;;6.40;;
16892;SDS011;8563;52.242;9.098;2023-04-29T12:56:13;6.95;;;6.35;;
16892;SDS011;8563;52.242;9.098;2023-04-29T12:58:47;5.47;;;4.97;;
16892;SDS011;8563;52.242;9.098;2023-04-29T13:01:19;9.65;;;6.00;;
16892;SDS011;8563;52.242;9.098;2023-04-29T13:03:53;7.80;;;6.30;;
16892;SDS011;8563;52.242;9.098;2023-04-29T13:06:26;5.75;;;4.90;;
16892;SDS011;8563;52.242;9.098;2023-04-29T13:08:58;7.60;;;6.00;;
16892;SDS011;8563;52.242;9.098;2023-04-29T13:11:31;5.82;;;5.18;;
16892;SDS011;8563;52.242;9.098;2023-04-29T13:14:03;5.83;;;4.70;;
16892;SDS011;8563;52.242;9.098;2023-04-29T13:16:37;5.30;;;4.80;;
16892;SDS011;8563;52.242;9.098;2023-04-29T13:19:11;5.67;;;4.50;;
16892;SDS011;8563;52.242;9.098;2023-04-29T13:21:43;5.20;;;4.07;;
16892;SDS011;8563;52.242;9.098;2023-04-29T13:24:17;5.17;;;4.20;;
16892;SDS011;8563;52.242;9.098;2023-04-29T13:26:50;4.70;;;4.27;;
16892;SDS011;8563;52.242;9.098;2023-04-29T13:29:23;4.33;;;3.93;;
16892;SDS011;8563;52.242;9.098;2023-04-29T13:31:56;5.70;;;4.70;;
16892;SDS011;8563;52.242;9.098;2023-04-29T13:34:29;6.60;;;4.93;;
16892;SDS011;8563;52.242;9.098;2023-04-29T13:37:02;6.83;;;4.97;;
16892;SDS011;8563;52.242;9.098;2023-04-29T13:39:34;8.37;;;5.40;;
16892;SDS011;8563;52.242;9.098;2023-04-29T13:42:07;6.00;;;5.40;;
16892;SDS011;8563;52.242;9.098;2023-04-29T13:44:40;6.57;;;4.93;;
16892;SDS011;8563;52.242;9.098;2023-04-29T13:47:13;6.23;;;5.10;;
16892;SDS011;8563;52.242;9.098;2023-04-29T13:49:47;5.00;;;4.37;;
16892;SDS011;8563;52.242;9.098;2023-04-29T13:52:20;5.00;;;4.37;;
16892;SDS011;8563;52.242;9.098;2023-04-29T13:54:53;5.50;;;4.70;;
16892;SDS011;8563;52.242;9.098;2023-04-29T13:57:25;6.67;;;4.90;;
16892;SDS011;8563;52.242;9.098;2023-04-29T13:59:58;5.00;;;4.50;;
16892;SDS011;8563;52.242;9.098;2023-04-29T14:02:31;7.13;;;5.20;;
16892;SDS011;8563;52.242;9.098;2023-04-29T14:05:06;6.10;;;4.57;;
16892;SDS011;8563;52.242;9.098;2023-04-29T14:07:39;5.10;;;4.60;;
16892;SDS011;8563;52.242;9.098;2023-04-29T14:10:11;6.05;;;4.95;;
16892;SDS011;8563;52.242;9.098;2023-04-29T14:12:44;6.03;;;5.03;;
16892;SDS011;8563;52.242;9.098;2023-04-29T14:15:17;6.35;;;4.95;;
16892;SDS011;8563;52.242;9.098;2023-04-29T14:17:50;5.15;;;4.65;;
16892;SDS011;8563;52.242;9.098;2023-04-29T14:20:25;5.28;;;4.20;;
16892;SDS011;8563;52.242;9.098;2023-04-29T14:22:58;4.82;;;4.07;;
16892;SDS011;8563;52.242;9.098;2023-04-29T14:25:31;5.63;;;3.70;;
16892;SDS011;8563;52.242;9.098;2023-04-29T14:28:03;4.63;;;4.18;;
16892;SDS011;8563;52.242;9.098;2023-04-29T14:30:36;4.47;;;4.00;;
16892;SDS011;8563;52.242;9.098;2023-04-29T14:33:08;5.25;;;3.85;;
16892;SDS011;8563;52.242;9.098;2023-04-29T14:35:42;5.18;;;3.95;;
16892;SDS011;8563;52.242;9.098;2023-04-29T14:38:15;4.05;;;3.58;;
16892;SDS011;8563;52.242;9.098;2023-04-29T14:40:47;4.40;;;4.00;;
16892;SDS011;8563;52.242;9.098;2023-04-29T14:43:20;3.97;;;3.50;;
16892;SDS011;8563;52.242;9.098;2023-04-29T14:45:52;6.35;;;3.70;;
16892;SDS011;8563;52.242;9.098;2023-04-29T14:48:25;4.10;;;3.70;;
16892;SDS011;8563;52.242;9.098;2023-04-29T14:50:59;3.42;;;3.03;;
16892;SDS011;8563;52.242;9.098;2023-04-29T14:53:31;5.18;;;3.85;;
16892;SDS011;8563;52.242;9.098;2023-04-29T14:56:04;5.38;;;4.15;;
16892;SDS011;8563;52.242;9.098;2023-04-29T14:58:37;5.90;;;4.60;;
16892;SDS011;8563;52.242;9.098;2023-04-29T15:01:09;8.20;;;4.70;;
16892;SDS011;8563;52.242;9.098;2023-04-29T15:03:42;8.13;;;4.95;;
16892;SDS011;8563;52.242;9.098;2023-04-29T15:06:15;6.27;;;5.03;;
16892;SDS011;8563;52.242;9.098;2023-04-29T15:08:48;6.23;;;5.20;;
16892;SDS011;8563;52.242;9.098;2023-04-29T15:11:20;5.40;;;4.90;;
16892;SDS011;8563;52.242;9.098;2023-04-29T15:13:53;8.30;;;5.93;;
16892;SDS011;8563;52.242;9.098;2023-04-29T15:16:25;6.67;;;5.73;;
16892;SDS011;8563;52.242;9.098;2023-04-29T15:18:58;6.20;;;5.60;;
16892;SDS011;8563;52.242;9.098;2023-04-29T15:21:32;5.87;;;5.27;;
16892;SDS011;8563;52.242;9.098;2023-04-29T15:24:05;7.37;;;5.17;;
16892;SDS011;8563;52.242;9.098;2023-04-29T15:26:38;5.50;;;5.00;;
16892;SDS011;8563;52.242;9.098;2023-04-29T15:29:11;4.90;;;4.40;;
16892;SDS011;8563;52.242;9.098;2023-04-29T15:31:44;5.97;;;4.60;;